Time;durP1;ratioP1;P1;durP2;ratioP2;P2;SDS_P1;SDS_P2;PMS_P1;PMS_P2;Temp;Humidity;BMP_temperature;BMP_pressure;BME280_temperature;BME280_humidity;BME280_pressure;Samples;Min_cycle;Max_cycle;Signal;HPM_P1;HPM_P2
2022/10/28 00:00:46;;;;;;;74.63;70.53;;;11.00;99.90;;;;;;5097793;28;20180;-80
2022/10/28 00:03:12;;;;;;;70.80;66.80;;;11.00;99.90;;;;;;5095900;28;20573;-80
2022/10/28 00:05:37;;;;;;;80.83;76.23;;;10.90;99.90;;;;;;5103505;28;20252;-78
2022/10/28 00:08:03;;;;;;;68.63;64.93;;;11.00;99.90;;;;;;5102974;28;20622;-79
2022/10/28 00:10:29;;;;;;;63.50;60.03;;;11.00;99.90;;;;;;5095885;28;20199;-80
2022/10/28 00:12:55;;;;;;;47.23;44.37;;;11.00;99.90;;;;;;5107572;28;20210;-78
2022/10/28 00:15:21;;;;;;;31.03;29.20;;;11.00;99.90;;;;;;5121124;28;20212;-78
2022/10/28 00:17:46;;;;;;;22.83;21.57;;;10.90;99.90;;;;;;5120409;28;20169;-80
2022/10/28 00:20:14;;;;;;;32.83;30.77;;;10.90;99.90;;;;;;5116902;28;20172;-80
2022/10/28 00:22:40;;;;;;;72.63;68.83;;;10.80;99.90;;;;;;5115801;28;20260;-80
2022/10/28 00:25:07;;;;;;;77.97;73.50;;;10.80;99.90;;;;;;5114003;28;20599;-80
2022/10/28 00:27:33;;;;;;;56.00;52.43;;;10.80;99.90;;;;;;5095458;28;20528;-80
2022/10/28 00:29:59;;;;;;;51.53;48.27;;;10.70;99.90;;;;;;5114975;28;20187;-80
2022/10/28 00:32:28;;;;;;;40.37;37.37;;;10.70;99.90;;;;;;5115252;28;20218;-80
2022/10/28 00:34:54;;;;;;;48.43;45.77;;;10.70;99.90;;;;;;5122206;28;20177;-78
2022/10/28 00:37:20;;;;;;;58.27;54.73;;;10.80;99.90;;;;;;5117960;28;20702;-80
2022/10/28 00:39:46;;;;;;;51.57;48.27;;;10.80;99.90;;;;;;5114178;28;20232;-78
2022/10/28 00:42:14;;;;;;;48.10;45.00;;;10.80;99.90;;;;;;5096585;28;20208;-80
2022/10/28 00:45:00;;;;;;;46.27;43.30;;;10.80;99.90;;;;;;5094069;28;20211;-81
2022/10/28 00:47:50;;;;;;;47.37;43.90;;;10.80;99.90;;;;;;5094525;28;20191;-81
2022/10/28 00:50:24;;;;;;;35.77;33.27;;;10.80;99.90;;;;;;5093446;28;20186;-81
2022/10/28 00:52:55;;;;;;;34.03;31.77;;;10.80;99.90;;;;;;5093401;28;20199;-81
2022/10/28 00:55:22;;;;;;;43.23;40.80;;;10.80;99.90;;;;;;5109129;28;20260;-81
2022/10/28 00:57:49;;;;;;;18.97;17.30;;;10.80;99.90;;;;;;5114442;28;20213;-80
2022/10/28 01:00:15;;;;;;;40.77;38.20;;;10.80;99.90;;;;;;5124190;28;20237;-81
2022/10/28 01:02:45;;;;;;;32.60;30.27;;;10.80;99.90;;;;;;5114989;28;20612;-81
2022/10/28 01:05:14;;;;;;;18.33;17.00;;;10.70;99.90;;;;;;5114390;28;20269;-81
2022/10/28 01:07:41;;;;;;;19.97;18.67;;;10.70;99.90;;;;;;5113629;28;20176;-81
2022/10/28 01:10:07;;;;;;;15.30;12.27;;;10.60;99.90;;;;;;5095621;28;20227;-80
2022/10/28 01:12:48;;;;;;;17.67;16.23;;;10.70;99.90;;;;;;5095521;28;20197;-81
2022/10/28 01:15:39;;;;;;;33.63;31.73;;;10.60;99.90;;;;;;5109416;28;20238;-79
2022/10/28 01:18:32;;;;;;;14.43;13.20;;;10.60;99.90;;;;;;5105120;28;20185;-81
2022/10/28 01:21:11;;;;;;;12.57;11.53;;;10.60;99.90;;;;;;5071891;28;20193;-81
2022/10/28 01:23:45;;;;;;;18.53;16.97;;;10.70;99.90;;;;;;5112947;28;20196;-79
2022/10/28 01:26:20;;;;;;;22.70;21.40;;;10.70;99.90;;;;;;5107382;28;20206;-81
2022/10/28 01:29:23;;;;;;;9.10;8.40;;;10.70;99.90;;;;;;5095314;28;20698;-81
2022/10/28 01:31:56;;;;;;;10.00;8.73;;;10.70;99.90;;;;;;5098585;28;20173;-81
2022/10/28 01:34:48;;;;;;;13.50;9.80;;;10.70;99.90;;;;;;5098292;28;20178;-81
2022/10/28 01:37:34;;;;;;;24.53;22.70;;;10.80;99.90;;;;;;5098183;28;20579;-79
2022/10/28 01:40:05;;;;;;;22.00;20.10;;;10.80;99.90;;;;;;5098334;28;20180;-80
2022/10/28 01:42:31;;;;;;;22.63;20.80;;;10.80;99.90;;;;;;5098975;28;20204;-80
2022/10/28 01:45:11;;;;;;;8.63;7.83;;;10.80;99.90;;;;;;5099396;28;20181;-80
2022/10/28 01:47:50;;;;;;;10.70;7.53;;;10.80;99.90;;;;;;5106868;28;20215;-78
2022/10/28 01:50:37;;;;;;;8.33;7.73;;;10.90;99.90;;;;;;5109083;28;20200;-78
2022/10/28 01:53:08;;;;;;;13.60;12.17;;;10.90;99.90;;;;;;5112974;28;20596;-80
2022/10/28 01:55:40;;;;;;;10.57;9.70;;;10.90;99.90;;;;;;5099352;28;20208;-79
2022/10/28 01:58:08;;;;;;;23.80;22.33;;;10.80;99.90;;;;;;5109974;28;20173;-79
2022/10/28 02:00:36;;;;;;;46.80;43.73;;;10.80;99.90;;;;;;5102379;28;20188;-80
2022/10/28 02:03:08;;;;;;;77.10;72.67;;;10.70;99.90;;;;;;5112856;28;20203;-80
2022/10/28 02:05:40;;;;;;;107.07;101.10;;;10.70;99.90;;;;;;5121074;27;20192;-79
2022/10/28 02:08:14;;;;;;;71.37;66.53;;;10.60;99.90;;;;;;5119643;28;20180;-80
2022/10/28 02:10:47;;;;;;;29.07;26.90;;;10.50;99.90;;;;;;5128245;28;20186;-80
2022/10/28 02:13:14;;;;;;;18.70;17.23;;;10.50;99.90;;;;;;5117892;28;20283;-80
2022/10/28 02:15:50;;;;;;;21.57;20.17;;;10.50;99.90;;;;;;5119022;28;20227;-79
2022/10/28 02:18:23;;;;;;;23.43;21.10;;;10.50;99.90;;;;;;5100828;28;20184;-80
2022/10/28 02:20:57;;;;;;;23.17;21.47;;;10.40;99.90;;;;;;5101673;28;20268;-80
2022/10/28 02:23:42;;;;;;;20.57;18.87;;;10.40;99.90;;;;;;5097307;28;20200;-81
2022/10/28 02:26:19;;;;;;;12.70;11.70;;;10.30;99.90;;;;;;5104937;28;20181;-78
2022/10/28 02:28:45;;;;;;;8.03;7.33;;;10.30;99.90;;;;;;5130412;28;20263;-78
2022/10/28 02:31:25;;;;;;;20.30;19.23;;;10.40;99.90;;;;;;5122379;28;20176;-79
2022/10/28 02:33:56;;;;;;;46.00;42.73;;;10.40;99.90;;;;;;5118797;28;20200;-79
2022/10/28 02:36:24;;;;;;;31.93;29.57;;;10.40;99.90;;;;;;5113318;28;20583;-80
2022/10/28 02:38:53;;;;;;;8.80;7.53;;;10.40;99.90;;;;;;5096205;28;20676;-79
2022/10/28 02:41:20;;;;;;;17.53;8.07;;;10.30;99.90;;;;;;5095316;28;20181;-78
2022/10/28 02:43:56;;;;;;;10.87;7.20;;;10.20;99.90;;;;;;5088165;28;20286;-79
2022/10/28 02:46:26;;;;;;;10.07;9.07;;;10.20;99.90;;;;;;5099756;28;20567;-79
2022/10/28 02:48:56;;;;;;;20.57;18.80;;;10.10;99.90;;;;;;5095845;28;20184;-81
2022/10/28 02:51:41;;;;;;;47.07;43.60;;;10.20;99.90;;;;;;5095795;28;20195;-82
2022/10/28 02:54:55;;;;;;;34.20;32.00;;;10.20;99.90;;;;;;5092705;28;20234;-68
2022/10/28 02:57:25;;;;;;;25.67;23.50;;;10.30;99.90;;;;;;5090363;28;20217;-67
2022/10/28 03:00:01;;;;;;;26.23;23.73;;;10.30;99.90;;;;;;5092607;28;20177;-68
2022/10/28 03:02:27;;;;;;;27.40;25.57;;;10.30;99.90;;;;;;5092243;28;20200;-68
2022/10/28 03:04:53;;;;;;;28.53;26.90;;;10.30;99.90;;;;;;5092517;28;20169;-68
2022/10/28 03:07:19;;;;;;;33.00;30.80;;;10.30;99.90;;;;;;5091767;28;20254;-68
2022/10/28 03:09:45;;;;;;;51.60;48.53;;;10.30;99.90;;;;;;5092268;28;20314;-68
2022/10/28 03:12:11;;;;;;;49.33;46.13;;;10.30;99.90;;;;;;5091968;28;20279;-68
2022/10/28 03:14:37;;;;;;;31.43;29.03;;;10.20;99.90;;;;;;5092113;28;20641;-68
2022/10/28 03:17:03;;;;;;;22.23;20.50;;;10.20;99.90;;;;;;5090674;28;20422;-68
2022/10/28 03:19:30;;;;;;;19.10;17.63;;;10.30;99.90;;;;;;5091890;28;20181;-67
2022/10/28 03:21:55;;;;;;;20.60;18.70;;;10.40;99.90;;;;;;5091812;28;20208;-68
2022/10/28 03:24:21;;;;;;;21.97;20.40;;;10.40;99.90;;;;;;5091981;28;20173;-68
2022/10/28 03:26:47;;;;;;;16.87;15.43;;;10.50;99.90;;;;;;5101871;28;20184;-71
2022/10/28 03:29:13;;;;;;;17.73;16.13;;;10.50;99.90;;;;;;5109044;28;20700;-71
2022/10/28 03:31:38;;;;;;;27.30;25.20;;;10.50;99.90;;;;;;5112040;28;20195;-71
2022/10/28 03:34:04;;;;;;;43.43;40.53;;;10.50;99.90;;;;;;5110736;28;20534;-71
2022/10/28 03:36:30;;;;;;;7.10;6.57;;;10.40;99.90;;;;;;5107692;28;20266;-72
2022/10/28 03:38:56;;;;;;;10.77;6.90;;;10.30;99.90;;;;;;5092176;28;20183;-72
2022/10/28 03:41:21;;;;;;;8.77;6.40;;;10.30;99.90;;;;;;5092147;28;20571;-71
2022/10/28 03:43:47;;;;;;;10.53;7.40;;;10.30;99.90;;;;;;5090551;28;20248;-72
2022/10/28 03:46:13;;;;;;;31.27;29.37;;;10.30;99.90;;;;;;5092227;28;20265;-71
2022/10/28 03:48:39;;;;;;;61.70;58.10;;;10.30;99.90;;;;;;5111429;28;20201;-70
2022/10/28 03:51:05;;;;;;;42.30;39.70;;;10.40;99.90;;;;;;5110507;28;20287;-71
2022/10/28 03:53:31;;;;;;;36.13;33.77;;;10.50;99.90;;;;;;5111620;28;20208;-72
2022/10/28 03:55:59;;;;;;;40.10;37.03;;;10.50;99.90;;;;;;5110455;28;20204;-71
2022/10/28 03:58:25;;;;;;;46.67;44.07;;;10.60;99.90;;;;;;5108572;28;20174;-71
2022/10/28 04:00:52;;;;;;;59.30;55.60;;;10.60;99.90;;;;;;5110690;28;20172;-71
2022/10/28 04:03:19;;;;;;;95.40;90.43;;;10.60;99.90;;;;;;5111558;28;20199;-72
2022/10/28 04:05:47;;;;;;;31.30;29.13;;;10.70;99.90;;;;;;5111834;28;20184;-73
2022/10/28 04:08:14;;;;;;;12.53;6.63;;;10.70;99.90;;;;;;5093911;28;20319;-74
2022/10/28 04:10:39;;;;;;;8.67;7.70;;;10.70;99.90;;;;;;5071564;28;20288;-74
2022/10/28 04:13:06;;;;;;;14.10;13.00;;;10.80;99.90;;;;;;5088759;28;20295;-74
2022/10/28 04:15:32;;;;;;;13.07;11.97;;;10.80;99.90;;;;;;5091223;28;20236;-73
2022/10/28 04:17:58;;;;;;;8.60;7.90;;;10.80;99.90;;;;;;5105123;28;20246;-73
2022/10/28 04:20:25;;;;;;;10.20;8.77;;;10.80;99.90;;;;;;5111232;28;20175;-74
2022/10/28 04:22:51;;;;;;;16.37;15.03;;;10.80;99.90;;;;;;5100529;28;20289;-74
2022/10/28 04:25:17;;;;;;;16.93;15.83;;;10.80;99.90;;;;;;5089823;28;20193;-74
2022/10/28 04:27:44;;;;;;;23.27;19.50;;;10.80;99.90;;;;;;5090903;28;20207;-74
2022/10/28 04:30:11;;;;;;;24.10;22.20;;;10.90;99.90;;;;;;5091186;28;20195;-74
2022/10/28 04:32:38;;;;;;;28.37;26.17;;;10.90;99.90;;;;;;5088173;28;20279;-74
2022/10/28 04:35:04;;;;;;;28.43;26.30;;;10.90;99.90;;;;;;5079594;28;20192;-74
2022/10/28 04:37:30;;;;;;;26.50;24.90;;;11.00;99.90;;;;;;5089888;28;20648;-74
2022/10/28 04:39:56;;;;;;;24.87;22.37;;;11.00;99.90;;;;;;5090905;28;20177;-73
2022/10/28 04:42:22;;;;;;;17.47;16.27;;;11.00;99.90;;;;;;5090756;28;20233;-74
2022/10/28 04:44:48;;;;;;;21.07;18.87;;;11.00;99.90;;;;;;5066189;22;20321;-74
2022/10/28 04:47:15;;;;;;;15.87;14.57;;;11.10;99.90;;;;;;5049555;28;20281;-75
2022/10/28 04:49:40;;;;;;;18.07;16.67;;;11.20;99.90;;;;;;5032821;28;20635;-74
2022/10/28 04:52:06;;;;;;;14.60;13.20;;;11.10;99.90;;;;;;5031838;28;20239;-75
2022/10/28 04:54:32;;;;;;;16.00;14.70;;;11.20;99.90;;;;;;5050440;28;20263;-75
2022/10/28 04:56:58;;;;;;;11.53;10.63;;;11.30;99.90;;;;;;5050024;28;20248;-75
2022/10/28 04:59:23;;;;;;;26.33;24.57;;;11.30;99.90;;;;;;5050681;28;20605;-75
2022/10/28 05:01:49;;;;;;;25.80;23.80;;;11.20;99.90;;;;;;5050463;28;20224;-75
2022/10/28 05:04:15;;;;;;;33.90;31.60;;;11.30;99.90;;;;;;5032432;28;20243;-75
2022/10/28 05:06:41;;;;;;;39.53;36.60;;;11.30;99.90;;;;;;5052388;28;20181;-74
2022/10/28 05:09:07;;;;;;;52.87;49.77;;;11.30;99.90;;;;;;5036292;28;20189;-75
2022/10/28 05:11:33;;;;;;;77.33;72.77;;;11.30;99.90;;;;;;5054565;28;20181;-75
2022/10/28 05:13:58;;;;;;;51.40;48.13;;;11.30;99.90;;;;;;5053951;28;20706;-75
2022/10/28 05:16:24;;;;;;;40.60;37.50;;;11.40;99.90;;;;;;5054118;28;20202;-75
2022/10/28 05:18:50;;;;;;;40.50;37.67;;;11.40;99.90;;;;;;5053723;28;20182;-76
2022/10/28 05:21:16;;;;;;;45.63;42.47;;;11.40;99.90;;;;;;5036837;28;20170;-76
2022/10/28 05:23:41;;;;;;;45.33;42.27;;;11.40;99.90;;;;;;5036190;28;20624;-75
2022/10/28 05:26:07;;;;;;;41.47;38.67;;;11.40;99.90;;;;;;5054523;28;20671;-75
2022/10/28 05:28:33;;;;;;;33.37;31.00;;;11.50;99.90;;;;;;5036130;28;20190;-75
2022/10/28 05:30:59;;;;;;;20.97;19.43;;;11.50;99.90;;;;;;5053953;28;20265;-75
2022/10/28 05:33:25;;;;;;;17.33;15.80;;;11.60;99.90;;;;;;5035887;28;20206;-76
2022/10/28 05:35:51;;;;;;;37.33;34.40;;;11.60;99.90;;;;;;5053943;28;20213;-75
2022/10/28 05:38:19;;;;;;;57.07;53.30;;;11.70;99.90;;;;;;5053671;28;20612;-75
2022/10/28 05:40:45;;;;;;;64.47;60.87;;;11.70;99.90;;;;;;5053870;28;20174;-75
2022/10/28 05:43:11;;;;;;;51.80;48.63;;;11.70;99.90;;;;;;5053372;28;20243;-75
2022/10/28 05:45:37;;;;;;;49.40;46.17;;;11.70;99.90;;;;;;5053768;28;20178;-75
2022/10/28 05:48:03;;;;;;;49.33;45.97;;;11.70;99.90;;;;;;5036088;28;20228;-75
2022/10/28 05:50:29;;;;;;;54.40;51.07;;;11.70;99.90;;;;;;5054659;28;20201;-76
2022/10/28 05:52:56;;;;;;;58.90;54.87;;;11.80;99.90;;;;;;5056416;28;20186;-75
2022/10/28 05:55:24;;;;;;;53.33;50.00;;;11.70;99.90;;;;;;5035564;28;20208;-75
2022/10/28 05:57:51;;;;;;;59.63;55.90;;;11.70;99.90;;;;;;5055200;28;20182;-75
2022/10/28 06:00:19;;;;;;;46.33;42.27;;;11.60;99.90;;;;;;5040097;28;20179;-75
2022/10/28 06:02:45;;;;;;;47.10;44.37;;;11.60;99.90;;;;;;5054069;28;20217;-75
2022/10/28 06:05:11;;;;;;;47.57;44.63;;;11.60;99.90;;;;;;5054163;28;20233;-74
2022/10/28 06:07:39;;;;;;;44.70;41.37;;;11.60;99.90;;;;;;5051531;28;20182;-75
2022/10/28 06:10:06;;;;;;;33.03;30.83;;;11.60;99.90;;;;;;5035458;28;20559;-75
2022/10/28 06:12:32;;;;;;;28.57;26.43;;;11.60;99.90;;;;;;5034029;28;20584;-75
2022/10/28 06:14:58;;;;;;;24.93;22.73;;;11.60;99.90;;;;;;5052288;28;20919;-75
2022/10/28 06:17:24;;;;;;;20.00;18.17;;;11.60;99.90;;;;;;5052063;28;20193;-76
2022/10/28 06:19:50;;;;;;;19.77;17.80;;;11.60;99.90;;;;;;5033466;28;20240;-76
2022/10/28 06:22:16;;;;;;;26.87;24.83;;;11.60;99.90;;;;;;5052160;28;20195;-76
2022/10/28 06:24:42;;;;;;;32.63;30.20;;;11.60;99.90;;;;;;5050717;28;20236;-76
2022/10/28 06:27:08;;;;;;;33.73;31.23;;;11.70;99.90;;;;;;5036222;28;20217;-76
2022/10/28 06:29:34;;;;;;;31.70;29.37;;;11.70;99.90;;;;;;5033466;28;20244;-76
2022/10/28 06:32:00;;;;;;;35.93;33.33;;;11.60;99.90;;;;;;5021841;28;20585;-74
2022/10/28 06:34:26;;;;;;;15.33;11.40;;;11.60;99.90;;;;;;5052722;28;20292;-75
2022/10/28 06:36:52;;;;;;;13.73;12.47;;;11.60;99.90;;;;;;5052258;28;20300;-74
2022/10/28 06:39:18;;;;;;;17.23;15.53;;;11.60;99.90;;;;;;5052443;28;20178;-74
2022/10/28 06:41:44;;;;;;;18.53;16.83;;;11.60;99.90;;;;;;5051561;28;20174;-75
2022/10/28 06:44:09;;;;;;;16.63;15.43;;;11.70;99.90;;;;;;5034304;28;20241;-75
2022/10/28 06:46:35;;;;;;;23.47;21.53;;;11.70;99.90;;;;;;5052501;28;20217;-74
2022/10/28 06:49:04;;;;;;;19.97;17.83;;;11.70;99.90;;;;;;5051053;28;20655;-74
2022/10/28 06:51:30;;;;;;;23.67;21.40;;;11.70;99.90;;;;;;5051528;28;20192;-75
2022/10/28 06:53:57;;;;;;;14.80;13.57;;;11.80;99.90;;;;;;5051920;28;20202;-74
2022/10/28 06:56:23;;;;;;;24.60;22.30;;;11.80;99.90;;;;;;5047231;28;20213;-75
2022/10/28 06:58:53;;;;;;;31.80;29.37;;;11.80;99.90;;;;;;5050934;28;20716;-75
2022/10/28 07:01:19;;;;;;;33.73;31.50;;;11.80;99.90;;;;;;5052446;28;20183;-75
2022/10/28 07:03:46;;;;;;;51.47;48.27;;;11.90;99.90;;;;;;5052158;28;20339;-74
2022/10/28 07:06:12;;;;;;;55.37;51.70;;;12.00;99.90;;;;;;5051809;28;20241;-74
2022/10/28 07:08:37;;;;;;;53.40;50.00;;;12.10;99.90;;;;;;5052259;28;20174;-75
2022/10/28 07:11:03;;;;;;;46.97;43.73;;;12.20;99.90;;;;;;5052175;28;20188;-75
2022/10/28 07:13:29;;;;;;;61.47;57.67;;;12.30;99.90;;;;;;5051777;28;20674;-74
2022/10/28 07:15:57;;;;;;;54.17;50.27;;;12.50;99.90;;;;;;5052141;28;20255;-74
2022/10/28 07:18:25;;;;;;;17.77;16.17;;;12.60;99.90;;;;;;5051758;28;20182;-74
2022/10/28 07:20:50;;;;;;;13.53;9.23;;;12.70;99.90;;;;;;5052479;28;20182;-75
2022/10/28 07:23:17;;;;;;;72.80;68.37;;;12.80;99.90;;;;;;5051729;28;20260;-75
2022/10/28 07:25:43;;;;;;;149.60;141.27;;;12.80;99.90;;;;;;5051682;28;20190;-75
2022/10/28 07:28:09;;;;;;;132.67;125.07;;;13.00;99.90;;;;;;5051794;28;20185;-74
2022/10/28 07:30:35;;;;;;;68.23;64.07;;;13.10;99.90;;;;;;5019021;28;20522;-75
2022/10/28 07:33:01;;;;;;;57.33;54.00;;;13.20;99.90;;;;;;5014441;28;20185;-74
2022/10/28 07:35:27;;;;;;;64.93;60.30;;;13.30;99.90;;;;;;5031993;28;20568;-74
2022/10/28 07:37:53;;;;;;;26.73;24.63;;;13.70;99.90;;;;;;5051526;28;20724;-74
2022/10/28 07:40:20;;;;;;;12.83;11.67;;;13.90;99.90;;;;;;5034083;28;20182;-73
2022/10/28 07:42:46;;;;;;;49.53;46.33;;;14.00;99.90;;;;;;5050476;28;20266;-75
2022/10/28 07:45:12;;;;;;;75.67;71.33;;;14.00;99.90;;;;;;5051196;28;20245;-74
2022/10/28 07:47:39;;;;;;;73.80;69.57;;;14.10;99.90;;;;;;5051738;28;20277;-74
2022/10/28 07:50:06;;;;;;;65.23;60.97;;;14.00;99.90;;;;;;5033998;28;20205;-74
2022/10/28 07:52:33;;;;;;;49.63;46.47;;;14.00;99.90;;;;;;5033580;28;20213;-74
2022/10/28 07:54:59;;;;;;;28.93;26.63;;;14.10;99.90;;;;;;5051189;28;20846;-74
2022/10/28 07:57:25;;;;;;;22.30;20.10;;;14.30;99.90;;;;;;5051104;28;20189;-75
2022/10/28 07:59:51;;;;;;;23.93;21.63;;;14.40;99.90;;;;;;5033437;28;20538;-74
2022/10/28 08:02:19;;;;;;;19.60;17.57;;;14.50;99.90;;;;;;5033830;28;20552;-75
2022/10/28 08:04:45;;;;;;;17.60;14.93;;;14.60;99.90;;;;;;5051088;28;20199;-76
2022/10/28 08:07:12;;;;;;;27.50;25.47;;;14.70;99.90;;;;;;5051007;28;20186;-76
2022/10/28 08:09:39;;;;;;;21.57;19.87;;;15.00;99.90;;;;;;5051180;28;20614;-77
2022/10/28 08:12:05;;;;;;;12.87;11.83;;;15.10;99.90;;;;;;5033415;28;20650;-76
2022/10/28 08:14:31;;;;;;;14.33;10.50;;;15.20;99.90;;;;;;5033236;28;20248;-77
2022/10/28 08:16:57;;;;;;;9.13;8.00;;;15.10;99.90;;;;;;5050802;28;20209;-77
2022/10/28 08:19:23;;;;;;;10.03;7.83;;;15.00;99.90;;;;;;5033371;28;20189;-77
2022/10/28 08:21:48;;;;;;;13.47;8.23;;;15.10;99.90;;;;;;5051037;28;20232;-77
2022/10/28 08:24:14;;;;;;;8.97;7.60;;;15.20;99.90;;;;;;5051272;28;20230;-77
2022/10/28 08:26:40;;;;;;;9.60;7.13;;;15.20;99.90;;;;;;5051045;28;20733;-76
2022/10/28 08:29:06;;;;;;;13.43;12.27;;;15.20;99.90;;;;;;5027122;28;20190;-76
2022/10/28 08:31:33;;;;;;;14.87;13.40;;;15.30;99.90;;;;;;5029522;28;20198;-76
2022/10/28 08:33:58;;;;;;;15.07;13.67;;;15.40;99.90;;;;;;5035395;28;20241;-76
2022/10/28 08:36:24;;;;;;;12.83;11.70;;;15.50;99.90;;;;;;5032541;28;20234;-76
2022/10/28 08:38:50;;;;;;;12.93;11.63;;;15.50;99.90;;;;;;5032828;28;20174;-76
2022/10/28 08:41:57;;;;;;;14.93;12.80;;;15.70;99.90;;;;;;5051788;28;20174;-76
2022/10/28 08:44:40;;;;;;;13.77;12.47;;;15.80;99.90;;;;;;5035866;28;20583;-76
2022/10/28 08:47:24;;;;;;;12.60;11.43;;;15.90;99.90;;;;;;5036885;28;20182;-76
2022/10/28 08:49:56;;;;;;;17.87;12.17;;;16.00;99.90;;;;;;5054709;28;20185;-77
2022/10/28 08:52:57;;;;;;;17.20;10.27;;;16.10;99.90;;;;;;5053729;28;20186;-76
2022/10/28 08:55:32;;;;;;;12.40;7.37;;;16.00;99.90;;;;;;5022352;28;20771;-77
2022/10/28 08:58:15;;;;;;;14.47;7.93;;;16.00;99.90;;;;;;5054111;28;20236;-76
2022/10/28 09:00:53;;;;;;;10.87;7.57;;;16.00;99.90;;;;;;5036672;28;20185;-76
2022/10/28 09:03:24;;;;;;;8.90;7.40;;;16.00;99.90;;;;;;5036616;28;20202;-77
2022/10/28 09:06:03;;;;;;;9.57;7.17;;;16.00;99.90;;;;;;5057115;28;20806;-76
2022/10/28 09:08:33;;;;;;;15.67;7.33;;;16.20;99.90;;;;;;5040851;28;20240;-76
2022/10/28 09:11:14;;;;;;;11.03;9.50;;;16.30;99.90;;;;;;5054386;28;20182;-77
2022/10/28 09:14:01;;;;;;;13.23;9.27;;;16.30;99.90;;;;;;5053783;28;20229;-76
2022/10/28 09:16:48;;;;;;;12.27;11.00;;;16.40;99.90;;;;;;5036257;28;20300;-76
2022/10/28 09:19:30;;;;;;;18.03;16.57;;;16.50;99.90;;;;;;5053471;28;20174;-76
2022/10/28 09:22:22;;;;;;;22.37;20.37;;;16.40;99.90;;;;;;5033192;28;20182;-76
2022/10/28 09:25:01;;;;;;;25.90;23.27;;;16.50;99.90;;;;;;4979762;28;20617;-76
2022/10/28 09:27:42;;;;;;;28.07;25.87;;;16.60;99.90;;;;;;5034809;28;20187;-76
2022/10/28 09:30:29;;;;;;;27.67;25.47;;;16.60;99.90;;;;;;5034188;28;20240;-76
2022/10/28 09:33:12;;;;;;;26.13;24.00;;;16.70;99.90;;;;;;5033953;28;20187;-77
2022/10/28 09:35:42;;;;;;;31.03;28.77;;;16.70;99.90;;;;;;5033610;28;20202;-77
2022/10/28 09:38:36;;;;;;;31.60;29.23;;;16.70;99.90;;;;;;5036956;28;20551;-76
2022/10/28 09:41:19;;;;;;;25.30;23.40;;;16.80;99.90;;;;;;5035849;28;20727;-77
2022/10/28 09:44:04;;;;;;;20.93;18.87;;;16.90;99.90;;;;;;5035532;28;20221;-77
2022/10/28 09:46:31;;;;;;;20.27;18.70;;;17.00;99.90;;;;;;5053482;28;20194;-76
2022/10/28 09:49:02;;;;;;;19.83;18.30;;;17.00;99.90;;;;;;5052883;28;20193;-77
2022/10/28 09:51:37;;;;;;;19.57;17.73;;;17.10;99.90;;;;;;5053224;28;20209;-77
2022/10/28 09:54:02;;;;;;;19.77;17.47;;;17.30;99.90;;;;;;5052668;28;20222;-77
2022/10/28 09:56:29;;;;;;;13.60;12.37;;;17.40;99.90;;;;;;5034425;28;20210;-76
2022/10/28 09:59:00;;;;;;;12.57;8.47;;;17.60;99.90;;;;;;5051937;28;20186;-76
2022/10/28 10:01:30;;;;;;;16.90;15.57;;;17.90;99.90;;;;;;5035273;28;20233;-76
2022/10/28 10:03:56;;;;;;;25.87;23.87;;;18.20;99.90;;;;;;5053014;28;20290;-77
2022/10/28 10:06:28;;;;;;;23.57;21.43;;;18.00;99.90;;;;;;5047252;28;20277;-76
2022/10/28 10:08:57;;;;;;;14.80;13.40;;;17.90;99.90;;;;;;5051711;28;20232;-76
2022/10/28 10:11:31;;;;;;;7.83;7.23;;;17.60;99.90;;;;;;5053084;28;20210;-76
2022/10/28 10:14:02;;;;;;;16.27;9.40;;;17.30;99.90;;;;;;5034824;28;20233;-76
2022/10/28 10:16:51;;;;;;;14.67;11.03;;;17.30;99.90;;;;;;5052795;28;20198;-76
2022/10/28 10:19:17;;;;;;;27.17;18.67;;;17.50;99.90;;;;;;5052906;28;20190;-76
2022/10/28 10:21:54;;;;;;;16.07;9.23;;;17.80;99.90;;;;;;5052324;28;20174;-76
2022/10/28 10:24:27;;;;;;;8.80;8.00;;;18.30;99.90;;;;;;5034815;28;20209;-76
2022/10/28 10:26:53;;;;;;;16.07;14.20;;;18.70;99.90;;;;;;5034818;28;20277;-75
2022/10/28 10:29:20;;;;;;;17.87;16.30;;;18.80;99.90;;;;;;5052785;28;20674;-76
2022/10/28 10:31:46;;;;;;;16.10;14.67;;;19.10;99.90;;;;;;5056385;28;20201;-77
2022/10/28 10:34:24;;;;;;;16.83;13.47;;;19.50;99.90;;;;;;5051388;28;20233;-76
2022/10/28 10:36:54;;;;;;;13.87;10.40;;;19.70;99.90;;;;;;5051904;28;20210;-76
2022/10/28 10:39:25;;;;;;;18.07;16.27;;;20.30;99.90;;;;;;5052553;28;20269;-77
2022/10/28 10:41:54;;;;;;;15.73;14.23;;;20.60;99.90;;;;;;5035194;28;20186;-76
2022/10/28 10:47:01;;;;;;;20.08;18.25;;;21.90;99.90;;;;;;5045612;28;20210;-73
2022/10/28 10:49:28;;;;;;;15.30;7.67;;;22.40;99.90;;;;;;5047311;28;20704;-73
2022/10/28 10:52:17;;;;;;;37.47;34.67;;;23.10;99.90;;;;;;5033641;28;20211;-73
2022/10/28 10:55:05;;;;;;;48.53;45.05;;;23.30;99.90;;;;;;5045285;28;20206;-73
2022/10/28 10:57:32;;;;;;;21.75;20.10;;;24.50;99.90;;;;;;5051338;28;20210;-72
2022/10/28 10:59:58;;;;;;;18.52;16.98;;;25.10;99.90;;;;;;5051984;28;20631;-73
2022/10/28 11:02:30;;;;;;;23.60;21.80;;;26.70;99.90;;;;;;5051945;28;20187;-73
2022/10/28 11:05:00;;;;;;;56.08;52.85;;;27.80;99.90;;;;;;5050119;28;20198;-72
2022/10/28 11:07:28;;;;;;;65.90;61.88;;;26.60;99.90;;;;;;5050278;28;20182;-73
2022/10/28 11:09:54;;;;;;;20.02;18.23;;;24.90;99.90;;;;;;5051670;28;20227;-72
2022/10/28 11:12:30;;;;;;;157.55;149.32;;;23.60;99.90;;;;;;5050264;28;20179;-72
2022/10/28 11:15:00;;;;;;;88.45;83.63;;;23.30;99.90;;;;;;5046544;28;20195;-73
2022/10/28 11:17:29;;;;;;;36.53;34.13;;;23.70;99.90;;;;;;5030314;28;20246;-73
2022/10/28 11:19:57;;;;;;;71.00;66.85;;;24.50;99.90;;;;;;5030371;28;20214;-72
2022/10/28 11:22:55;;;;;;;68.47;63.95;;;24.60;99.90;;;;;;5047141;28;20580;-73
2022/10/28 11:25:35;;;;;;;21.88;20.00;;;24.00;99.90;;;;;;5031166;28;20207;-73
2022/10/28 11:28:20;;;;;;;193.40;183.93;;;23.20;99.90;;;;;;5029660;28;20179;-73
2022/10/28 11:31:13;;;;;;;116.90;110.72;;;22.90;99.90;;;;;;5029816;28;20179;-72
2022/10/28 11:34:16;;;;;;;43.50;40.60;;;22.00;99.90;;;;;;5031150;28;20213;-74
2022/10/28 11:36:51;;;;;;;37.22;34.53;;;21.80;99.90;;;;;;5044010;28;20214;-73
2022/10/28 11:39:23;;;;;;;39.13;36.20;;;21.80;99.90;;;;;;5049754;28;20182;-73
2022/10/28 11:41:51;;;;;;;39.35;37.22;;;21.80;99.90;;;;;;5050645;28;20220;-73
2022/10/28 11:44:20;;;;;;;16.25;12.93;;;21.90;99.90;;;;;;5041495;28;20265;-73
2022/10/28 11:47:03;;;;;;;11.75;6.35;;;22.00;99.90;;;;;;5035025;28;20633;-73
2022/10/28 11:50:00;;;;;;;19.35;17.85;;;21.80;99.90;;;;;;5050486;28;20556;-72
2022/10/28 11:52:56;;;;;;;30.90;28.48;;;21.60;99.90;;;;;;5039638;28;20248;-73
2022/10/28 11:55:34;;;;;;;20.42;18.52;;;21.50;99.90;;;;;;5032166;28;20583;-72
2022/10/28 11:58:22;;;;;;;12.88;8.38;;;21.60;99.90;;;;;;5030245;28;20181;-72
2022/10/28 12:01:14;;;;;;;19.65;17.75;;;21.60;99.90;;;;;;5030564;28;20213;-72
2022/10/28 12:04:06;;;;;;;19.48;17.45;;;21.60;99.90;;;;;;5033727;28;20174;-72
2022/10/28 12:06:43;;;;;;;26.10;23.75;;;21.50;99.90;;;;;;5049049;28;20718;-72
2022/10/28 12:09:28;;;;;;;24.63;22.63;;;21.50;99.90;;;;;;5050163;28;20196;-71
2022/10/28 12:12:18;;;;;;;33.35;25.92;;;21.50;99.90;;;;;;5048984;28;20223;-72
2022/10/28 12:14:56;;;;;;;16.05;13.60;;;21.50;99.90;;;;;;5037513;28;20199;-66
2022/10/28 12:17:34;;;;;;;22.00;13.65;;;21.50;99.90;;;;;;5050946;28;20225;-66
2022/10/28 12:20:21;;;;;;;20.95;11.70;;;21.60;99.90;;;;;;5050689;28;20174;-69
2022/10/28 12:22:54;;;;;;;13.73;8.68;;;21.80;99.90;;;;;;5048498;28;20216;-67
2022/10/28 12:25:25;;;;;;;12.82;11.40;;;21.90;99.90;;;;;;5033423;28;20774;-68
2022/10/28 12:27:56;;;;;;;10.73;7.88;;;21.90;99.90;;;;;;5030006;28;20179;-67
2022/10/28 12:30:26;;;;;;;13.55;10.43;;;21.60;99.90;;;;;;5045884;28;20584;-67
2022/10/28 12:33:06;;;;;;;12.05;10.85;;;21.60;99.90;;;;;;5049558;28;20182;-67
2022/10/28 12:35:42;;;;;;;29.02;22.30;;;21.70;99.90;;;;;;5049221;28;20741;-68
2022/10/28 12:38:22;;;;;;;32.15;29.20;;;21.80;99.90;;;;;;5050010;28;20181;-67
2022/10/28 12:40:58;;;;;;;13.45;12.07;;;22.80;99.90;;;;;;5050297;28;20674;-68
2022/10/28 12:43:32;;;;;;;30.15;27.67;;;23.30;99.90;;;;;;5049426;28;20212;-68
2022/10/28 12:45:59;;;;;;;35.17;32.15;;;23.70;99.90;;;;;;5041940;28;20220;-74
2022/10/28 12:49:02;;;;;;;38.15;35.53;;;24.00;99.90;;;;;;5049428;28;20182;-77
2022/10/28 12:51:36;;;;;;;38.70;36.03;;;24.00;99.90;;;;;;5049969;28;20754;-74